sensor_id;sensor_type;location;lat;lon;timestamp;pressure;altitude;pressure_sealevel;temperature;humidity
20019;BME280;10170;42.502;26.526;2023-02-28T00:00:38;100419.31;;;8.02;100.00
20019;BME280;10170;42.502;26.526;2023-02-28T00:03:05;100416.16;;;7.99;100.00
20019;BME280;10170;42.502;26.526;2023-02-28T00:05:33;100409.38;;;7.96;100.00
20019;BME280;10170;42.502;26.526;2023-02-28T00:08:00;100412.69;;;8.06;100.00
20019;BME280;10170;42.502;26.526;2023-02-28T00:10:29;100416.00;;;8.00;100.00
20019;BME280;10170;42.502;26.526;2023-02-28T00:13:00;100415.34;;;7.98;100.00
20019;BME280;10170;42.502;26.526;2023-02-28T00:15:34;100427.63;;;7.83;100.00
20019;BME280;10170;42.502;26.526;2023-02-28T00:18:02;100430.06;;;7.93;100.00
20019;BME280;10170;42.502;26.526;2023-02-28T00:20:29;100427.44;;;7.93;100.00
20019;BME280;10170;42.502;26.526;2023-02-28T00:23:04;100440.66;;;7.93;100.00
20019;BME280;10170;42.502;26.526;2023-02-28T00:25:31;100427.63;;;7.83;100.00
20019;BME280;10170;42.502;26.526;2023-02-28T00:27:58;100434.41;;;7.86;100.00
20019;BME280;10170;42.502;26.526;2023-02-28T00:30:24;100444.84;;;7.79;100.00
20019;BME280;10170;42.502;26.526;2023-02-28T00:32:51;100436.72;;;7.81;100.00
20019;BME280;10170;42.502;26.526;2023-02-28T00:35:18;100451.78;;;7.80;100.00
20019;BME280;10170;42.502;26.526;2023-02-28T00:37:45;100446.00;;;7.77;100.00
20019;BME280;10170;42.502;26.526;2023-02-28T00:40:12;100449.81;;;7.74;100.00
20019;BME280;10170;42.502;26.526;2023-02-28T00:42:38;100449.34;;;7.71;100.00
20019;BME280;10170;42.502;26.526;2023-02-28T00:45:06;100439.25;;;7.74;100.00
20019;BME280;10170;42.502;26.526;2023-02-28T00:47:34;100456.09;;;7.73;100.00
20019;BME280;10170;42.502;26.526;2023-02-28T00:50:02;100392.13;;;7.37;100.00
20019;BME280;10170;42.502;26.526;2023-02-28T00:52:29;100434.91;;;7.73;100.00
20019;BME280;10170;42.502;26.526;2023-02-28T00:54:56;100413.75;;;7.73;100.00
20019;BME280;10170;42.502;26.526;2023-02-28T00:57:23;100441.72;;;7.76;100.00
20019;BME280;10170;42.502;26.526;2023-02-28T00:59:49;100433.09;;;7.74;100.00
20019;BME280;10170;42.502;26.526;2023-02-28T01:02:16;100441.53;;;7.77;100.00
20019;BME280;10170;42.502;26.526;2023-02-28T01:04:44;100447.81;;;7.76;100.00
20019;BME280;10170;42.502;26.526;2023-02-28T01:07:11;100442.53;;;7.68;100.00
20019;BME280;10170;42.502;26.526;2023-02-28T01:09:38;100451.31;;;7.69;100.00
20019;BME280;10170;42.502;26.526;2023-02-28T01:12:05;100444.19;;;7.69;100.00
20019;BME280;10170;42.502;26.526;2023-02-28T01:14:32;100439.91;;;7.68;100.00
20019;BME280;10170;42.502;26.526;2023-02-28T01:17:00;100451.63;;;7.66;100.00
20019;BME280;10170;42.502;26.526;2023-02-28T01:19:26;100449.47;;;7.69;100.00
20019;BME280;10170;42.502;26.526;2023-02-28T01:21:53;100456.78;;;7.67;100.00
20019;BME280;10170;42.502;26.526;2023-02-28T01:24:20;100451.63;;;7.66;100.00
20019;BME280;10170;42.502;26.526;2023-02-28T01:26:47;100442.06;;;7.57;100.00
20019;BME280;10170;42.502;26.526;2023-02-28T01:29:15;100436.94;;;7.63;100.00
20019;BME280;10170;42.502;26.526;2023-02-28T01:31:41;100449.34;;;7.55;100.00
20019;BME280;10170;42.502;26.526;2023-02-28T01:34:08;100459.91;;;7.63;100.00
20019;BME280;10170;42.502;26.526;2023-02-28T01:36:35;100463.56;;;7.62;100.00
20019;BME280;10170;42.502;26.526;2023-02-28T01:39:02;100467.84;;;7.63;100.00
20019;BME280;10170;42.502;26.526;2023-02-28T01:41:32;100482.91;;;7.62;100.00
20019;BME280;10170;42.502;26.526;2023-02-28T01:44:54;100491.84;;;7.53;100.00
20019;BME280;10170;42.502;26.526;2023-02-28T01:46:54;100485.88;;;7.51;100.00
20019;BME280;10170;42.502;26.526;2023-02-28T01:49:20;100463.72;;;7.44;100.00
20019;BME280;10170;42.502;26.526;2023-02-28T01:51:50;100480.25;;;7.46;100.00
20019;BME280;10170;42.502;26.526;2023-02-28T01:54:22;100486.38;;;7.46;100.00
20019;BME280;10170;42.502;26.526;2023-02-28T01:57:17;100477.44;;;7.47;100.00
20019;BME280;10170;42.502;26.526;2023-02-28T01:59:50;100465.56;;;7.27;100.00
20019;BME280;10170;42.502;26.526;2023-02-28T02:02:20;100484.88;;;7.44;100.00
20019;BME280;10170;42.502;26.526;2023-02-28T02:04:58;100503.09;;;7.47;100.00
20019;BME280;10170;42.502;26.526;2023-02-28T02:07:35;100481.91;;;7.39;100.00
20019;BME280;10170;42.502;26.526;2023-02-28T02:38:32;100513.66;;;7.31;100.00
20019;BME280;10170;42.502;26.526;2023-02-28T02:43:42;100498.44;;;7.25;100.00
20019;BME280;10170;42.502;26.526;2023-02-28T02:46:18;100507.38;;;7.24;100.00
20019;BME280;10170;42.502;26.526;2023-02-28T02:48:46;100503.22;;;7.21;100.00
20019;BME280;10170;42.502;26.526;2023-02-28T02:51:17;100521.28;;;7.26;100.00
20019;BME280;10170;42.502;26.526;2023-02-28T02:53:52;100502.25;;;7.30;100.00
20019;BME280;10170;42.502;26.526;2023-02-28T02:56:24;100479.09;;;7.16;100.00
20019;BME280;10170;42.502;26.526;2023-02-28T02:58:55;100477.91;;;7.19;100.00
20019;BME280;10170;42.502;26.526;2023-02-28T03:01:25;100494.28;;;7.22;100.00
20019;BME280;10170;42.502;26.526;2023-02-28T03:04:02;100504.38;;;7.19;100.00
20019;BME280;10170;42.502;26.526;2023-02-28T03:06:30;100510.03;;;7.24;100.00
20019;BME280;10170;42.502;26.526;2023-02-28T03:08:57;100516.28;;;7.23;100.00
20019;BME280;10170;42.502;26.526;2023-02-28T03:11:23;100506.72;;;7.22;100.00
20019;BME280;10170;42.502;26.526;2023-02-28T03:14:26;100507.22;;;7.25;100.00
20019;BME280;10170;42.502;26.526;2023-02-28T03:17:35;100504.53;;;7.17;100.00
20019;BME280;10170;42.502;26.526;2023-02-28T03:22:50;100526.22;;;7.29;100.00
20019;BME280;10170;42.502;26.526;2023-02-28T03:25:29;100524.22;;;7.23;100.00
20019;BME280;10170;42.502;26.526;2023-02-28T03:28:49;100543.19;;;7.10;100.00
20019;BME280;10170;42.502;26.526;2023-02-28T03:31:19;100537.59;;;7.13;100.00
20019;BME280;10170;42.502;26.526;2023-02-28T03:33:53;100526.84;;;7.07;100.00
20019;BME280;10170;42.502;26.526;2023-02-28T03:36:27;100518.56;;;7.02;100.00
20019;BME280;10170;42.502;26.526;2023-02-28T03:38:59;100530.78;;;7.03;100.00
20019;BME280;10170;42.502;26.526;2023-02-28T03:41:38;100521.03;;;6.95;100.00
20019;BME280;10170;42.502;26.526;2023-02-28T03:44:46;100517.38;;;6.96;100.00
20019;BME280;10170;42.502;26.526;2023-02-28T03:47:58;100512.59;;;7.00;100.00
20019;BME280;10170;42.502;26.526;2023-02-28T03:50:06;100535.06;;;6.96;100.00
20019;BME280;10170;42.502;26.526;2023-02-28T03:52:38;100517.72;;;7.01;100.00
20019;BME280;10170;42.502;26.526;2023-02-28T03:55:11;100542.34;;;7.02;100.00
20019;BME280;10170;42.502;26.526;2023-02-28T04:00:21;100520.06;;;7.04;100.00
20019;BME280;10170;42.502;26.526;2023-02-28T04:02:55;100518.56;;;7.02;100.00
20019;BME280;10170;42.502;26.526;2023-02-28T04:05:22;100534.75;;;6.99;100.00
20019;BME280;10170;42.502;26.526;2023-02-28T04:07:49;100505.84;;;7.05;100.00
20019;BME280;10170;42.502;26.526;2023-02-28T04:10:16;100551.13;;;7.10;100.00
20019;BME280;10170;42.502;26.526;2023-02-28T04:12:43;100526.50;;;7.10;100.00
20019;BME280;10170;42.502;26.526;2023-02-28T04:15:10;100529.47;;;7.07;100.00
20019;BME280;10170;42.502;26.526;2023-02-28T04:17:37;100514.41;;;6.99;100.00
20019;BME280;10170;42.502;26.526;2023-02-28T04:20:05;100526.50;;;7.02;100.00
20019;BME280;10170;42.502;26.526;2023-02-28T04:22:36;100526.81;;;6.99;100.00
20019;BME280;10170;42.502;26.526;2023-02-28T04:25:04;100571.25;;;6.95;100.00
20019;BME280;10170;42.502;26.526;2023-02-28T04:27:32;100540.84;;;6.99;100.00
20019;BME280;10170;42.502;26.526;2023-02-28T04:29:59;100536.53;;;6.90;100.00
20019;BME280;10170;42.502;26.526;2023-02-28T04:32:26;100552.25;;;7.00;100.00
20019;BME280;10170;42.502;26.526;2023-02-28T04:34:53;100531.91;;;6.92;100.00
20019;BME280;10170;42.502;26.526;2023-02-28T04:37:20;100551.75;;;6.96;100.00
20019;BME280;10170;42.502;26.526;2023-02-28T04:39:47;100544.34;;;7.00;100.00
20019;BME280;10170;42.502;26.526;2023-02-28T04:42:14;100567.78;;;7.03;100.00
20019;BME280;10170;42.502;26.526;2023-02-28T04:44:41;100555.75;;;7.00;100.00
20019;BME280;10170;42.502;26.526;2023-02-28T04:47:08;100543.31;;;6.93;100.00
20019;BME280;10170;42.502;26.526;2023-02-28T04:49:35;100559.22;;;7.01;100.00
20019;BME280;10170;42.502;26.526;2023-02-28T04:52:02;100548.28;;;6.96;100.00
20019;BME280;10170;42.502;26.526;2023-02-28T04:54:28;100557.72;;;6.98;100.00
20019;BME280;10170;42.502;26.526;2023-02-28T04:56:55;100564.81;;;6.98;100.00
20019;BME280;10170;42.502;26.526;2023-02-28T04:59:22;100576.03;;;6.92;100.00
20019;BME280;10170;42.502;26.526;2023-02-28T05:01:49;100595.19;;;6.94;100.00
20019;BME280;10170;42.502;26.526;2023-02-28T05:04:16;100579.66;;;6.91;100.00
20019;BME280;10170;42.502;26.526;2023-02-28T05:06:44;100580.16;;;6.94;100.00
20019;BME280;10170;42.502;26.526;2023-02-28T05:09:10;100581.00;;;6.95;100.00
20019;BME280;10170;42.502;26.526;2023-02-28T05:11:38;100579.66;;;6.91;100.00
20019;BME280;10170;42.502;26.526;2023-02-28T05:14:15;100609.41;;;6.93;100.00
20019;BME280;10170;42.502;26.526;2023-02-28T05:16:42;100590.06;;;6.92;100.00
20019;BME280;10170;42.502;26.526;2023-02-28T05:19:09;100605.47;;;6.97;100.00
20019;BME280;10170;42.502;26.526;2023-02-28T05:21:38;100592.41;;;6.95;100.00
20019;BME280;10170;42.502;26.526;2023-02-28T05:24:10;100617.19;;;6.94;100.00
20019;BME280;10170;42.502;26.526;2023-02-28T05:26:40;100617.53;;;6.99;100.00
20019;BME280;10170;42.502;26.526;2023-02-28T05:29:07;100629.56;;;6.94;100.00
20019;BME280;10170;42.502;26.526;2023-02-28T05:31:34;100626.91;;;6.94;100.00
20019;BME280;10170;42.502;26.526;2023-02-28T05:34:02;100629.25;;;6.97;100.00
20019;BME280;10170;42.502;26.526;2023-02-28T05:36:31;100627.41;;;6.89;100.00
20019;BME280;10170;42.502;26.526;2023-02-28T05:38:58;100629.44;;;7.03;100.00
20019;BME280;10170;42.502;26.526;2023-02-28T05:41:24;100616.72;;;6.99;100.00
20019;BME280;10170;42.502;26.526;2023-02-28T05:43:53;100638.50;;;6.93;100.00
20019;BME280;10170;42.502;26.526;2023-02-28T05:46:19;100629.69;;;6.84;100.00
20019;BME280;10170;42.502;26.526;2023-02-28T05:48:48;100643.16;;;6.99;100.00
20019;BME280;10170;42.502;26.526;2023-02-28T05:51:16;100649.84;;;6.85;100.00
20019;BME280;10170;42.502;26.526;2023-02-28T05:53:43;100640.66;;;6.97;100.00
20019;BME280;10170;42.502;26.526;2023-02-28T05:56:10;100644.09;;;6.90;100.00
20019;BME280;10170;42.502;26.526;2023-02-28T05:58:37;100648.06;;;6.94;100.00
20019;BME280;10170;42.502;26.526;2023-02-28T06:01:34;100657.50;;;6.96;100.00
20019;BME280;10170;42.502;26.526;2023-02-28T06:04:03;100640.13;;;6.86;100.00
20019;BME280;10170;42.502;26.526;2023-02-28T06:06:31;100645.41;;;6.94;100.00
20019;BME280;10170;42.502;26.526;2023-02-28T06:08:59;100666.56;;;6.94;100.00
20019;BME280;10170;42.502;26.526;2023-02-28T06:11:27;100662.91;;;6.87;100.00
20019;BME280;10170;42.502;26.526;2023-02-28T06:13:56;100644.91;;;6.90;100.00
20019;BME280;10170;42.502;26.526;2023-02-28T06:16:24;100658.19;;;6.98;100.00
20019;BME280;10170;42.502;26.526;2023-02-28T06:18:51;100665.44;;;6.96;100.00
20019;BME280;10170;42.502;26.526;2023-02-28T06:21:19;100661.66;;;6.99;100.00
20019;BME280;10170;42.502;26.526;2023-02-28T06:23:45;100675.84;;;6.98;100.00
20019;BME280;10170;42.502;26.526;2023-02-28T06:26:12;100660.78;;;6.90;100.00
20019;BME280;10170;42.502;26.526;2023-02-28T06:28:39;100678.84;;;7.03;100.00
20019;BME280;10170;42.502;26.526;2023-02-28T06:31:10;100680.00;;;7.00;100.00
20019;BME280;10170;42.502;26.526;2023-02-28T06:33:39;100666.56;;;6.94;100.00
20019;BME280;10170;42.502;26.526;2023-02-28T06:36:07;100654.28;;;6.77;100.00
20019;BME280;10170;42.502;26.526;2023-02-28T06:38:34;100645.34;;;6.78;100.00
20019;BME280;10170;42.502;26.526;2023-02-28T06:41:01;100653.69;;;6.91;100.00
20019;BME280;10170;42.502;26.526;2023-02-28T06:43:30;100658.63;;;6.94;100.00
20019;BME280;10170;42.502;26.526;2023-02-28T06:45:59;100654.88;;;6.96;100.00
20019;BME280;10170;42.502;26.526;2023-02-28T06:48:27;100672.63;;;7.12;100.00
20019;BME280;10170;42.502;26.526;2023-02-28T06:51:11;100665.56;;;7.20;100.00
20019;BME280;10170;42.502;26.526;2023-02-28T06:53:40;100668.16;;;7.12;100.00
20019;BME280;10170;42.502;26.526;2023-02-28T06:56:08;100661.09;;;7.21;100.00
20019;BME280;10170;42.502;26.526;2023-02-28T06:58:39;100699.06;;;7.12;100.00
20019;BME280;10170;42.502;26.526;2023-02-28T07:01:07;100694.25;;;7.07;100.00
20019;BME280;10170;42.502;26.526;2023-02-28T07:03:35;100684.13;;;7.03;100.00
20019;BME280;10170;42.502;26.526;2023-02-28T07:06:02;100693.41;;;6.99;100.00
20019;BME280;10170;42.502;26.526;2023-02-28T07:08:30;100705.97;;;7.05;100.00
20019;BME280;10170;42.502;26.526;2023-02-28T07:10:58;100690.38;;;6.94;100.00
20019;BME280;10170;42.502;26.526;2023-02-28T07:13:25;100697.34;;;7.03;100.00
20019;BME280;10170;42.502;26.526;2023-02-28T07:15:57;100711.56;;;7.02;100.00
20019;BME280;10170;42.502;26.526;2023-02-28T07:18:25;100679.28;;;6.90;100.00
20019;BME280;10170;42.502;26.526;2023-02-28T07:20:52;100688.41;;;6.96;100.00
20019;BME280;10170;42.502;26.526;2023-02-28T07:23:19;100682.34;;;7.03;100.00
20019;BME280;10170;42.502;26.526;2023-02-28T07:25:47;100688.09;;;6.99;100.00
20019;BME280;10170;42.502;26.526;2023-02-28T07:28:14;100683.69;;;7.07;100.00
20019;BME280;10170;42.502;26.526;2023-02-28T07:30:42;100677.53;;;6.99;100.00
20019;BME280;10170;42.502;26.526;2023-02-28T07:33:09;100674.06;;;7.06;100.00
20019;BME280;10170;42.502;26.526;2023-02-28T07:35:36;100688.66;;;7.10;100.00
20019;BME280;10170;42.502;26.526;2023-02-28T07:38:03;100688.47;;;7.12;100.00
20019;BME280;10170;42.502;26.526;2023-02-28T07:40:30;100692.03;;;7.20;100.00
20019;BME280;10170;42.502;26.526;2023-02-28T07:42:59;100713.88;;;7.30;100.00
20019;BME280;10170;42.502;26.526;2023-02-28T07:45:27;100703.09;;;7.24;100.00
20019;BME280;10170;42.502;26.526;2023-02-28T07:47:55;100707.72;;;7.22;100.00
20019;BME280;10170;42.502;26.526;2023-02-28T07:50:22;100703.25;;;7.22;100.00
20019;BME280;10170;42.502;26.526;2023-02-28T07:52:52;100699.63;;;7.23;100.00
20019;BME280;10170;42.502;26.526;2023-02-28T07:55:19;100684.34;;;7.09;100.00
20019;BME280;10170;42.502;26.526;2023-02-28T07:57:45;100683.06;;;7.13;100.00
20019;BME280;10170;42.502;26.526;2023-02-28T08:00:12;100685.78;;;7.37;100.00
20019;BME280;10170;42.502;26.526;2023-02-28T08:02:40;100677.56;;;7.48;100.00
20019;BME280;10170;42.502;26.526;2023-02-28T08:05:07;100637.66;;;7.26;100.00
20019;BME280;10170;42.502;26.526;2023-02-28T08:07:35;100675.81;;;7.65;100.00
20019;BME280;10170;42.502;26.526;2023-02-28T08:10:03;100704.59;;;7.76;100.00
20019;BME280;10170;42.502;26.526;2023-02-28T08:12:32;100689.88;;;7.74;100.00
20019;BME280;10170;42.502;26.526;2023-02-28T08:14:58;100683.78;;;7.81;100.00
20019;BME280;10170;42.502;26.526;2023-02-28T08:17:25;100684.59;;;7.98;100.00
20019;BME280;10170;42.502;26.526;2023-02-28T08:19:52;100675.50;;;7.84;100.00
20019;BME280;10170;42.502;26.526;2023-02-28T08:22:19;100689.91;;;7.90;100.00
20019;BME280;10170;42.502;26.526;2023-02-28T08:24:45;100674.97;;;7.73;100.00
20019;BME280;10170;42.502;26.526;2023-02-28T08:27:13;100707.41;;;7.75;100.00
20019;BME280;10170;42.502;26.526;2023-02-28T08:29:40;100667.53;;;7.68;100.00
20019;BME280;10170;42.502;26.526;2023-02-28T08:32:07;100699.66;;;7.81;100.00
20019;BME280;10170;42.502;26.526;2023-02-28T08:34:49;100690.06;;;7.96;100.00
20019;BME280;10170;42.502;26.526;2023-02-28T08:37:15;100703.31;;;7.88;100.00
20019;BME280;10170;42.502;26.526;2023-02-28T08:39:42;100697.00;;;7.81;100.00
20019;BME280;10170;42.502;26.526;2023-02-28T08:42:09;100690.34;;;7.69;100.00
20019;BME280;10170;42.502;26.526;2023-02-28T08:44:36;100700.66;;;7.88;100.00
20019;BME280;10170;42.502;26.526;2023-02-28T08:47:02;100701.84;;;8.02;100.00
20019;BME280;10170;42.502;26.526;2023-02-28T08:49:29;100692.25;;;8.01;100.00
20019;BME280;10170;42.502;26.526;2023-02-28T08:51:56;100703.34;;;8.04;100.00
20019;BME280;10170;42.502;26.526;2023-02-28T08:54:24;100703.66;;;7.93;100.00
20019;BME280;10170;42.502;26.526;2023-02-28T08:56:51;100698.78;;;7.73;100.00
20019;BME280;10170;42.502;26.526;2023-02-28T08:59:17;100710.75;;;7.85;100.00
20019;BME280;10170;42.502;26.526;2023-02-28T09:01:44;100697.22;;;8.04;100.00
20019;BME280;10170;42.502;26.526;2023-02-28T09:04:11;100714.09;;;8.03;100.00
20019;BME280;10170;42.502;26.526;2023-02-28T09:06:42;100705.31;;;8.02;100.00
20019;BME280;10170;42.502;26.526;2023-02-28T09:09:11;100718.91;;;7.99;100.00
20019;BME280;10170;42.502;26.526;2023-02-28T09:11:37;100726.19;;;7.97;100.00
20019;BME280;10170;42.502;26.526;2023-02-28T09:14:04;100716.38;;;7.90;100.00
20019;BME280;10170;42.502;26.526;2023-02-28T09:16:32;100721.66;;;7.82;100.00
20019;BME280;10170;42.502;26.526;2023-02-28T09:19:00;100720.19;;;7.87;100.00
20019;BME280;10170;42.502;26.526;2023-02-28T09:21:27;100716.22;;;7.91;100.00
20019;BME280;10170;42.502;26.526;2023-02-28T09:23:54;100726.31;;;7.88;100.00
20019;BME280;10170;42.502;26.526;2023-02-28T09:26:26;100704.97;;;7.81;100.00
20019;BME280;10170;42.502;26.526;2023-02-28T09:29:04;100718.50;;;7.78;100.00
20019;BME280;10170;42.502;26.526;2023-02-28T09:31:31;100713.38;;;7.69;100.00
20019;BME280;10170;42.502;26.526;2023-02-28T09:33:58;100649.41;;;7.39;100.00
20019;BME280;10170;42.502;26.526;2023-02-28T09:36:26;100712.22;;;7.79;100.00
20019;BME280;10170;42.502;26.526;2023-02-28T09:39:09;100722.13;;;7.69;100.00
20019;BME280;10170;42.502;26.526;2023-02-28T09:41:43;100732.59;;;7.87;100.00
20019;BME280;10170;42.502;26.526;2023-02-28T09:44:40;100716.00;;;7.77;100.00
20019;BME280;10170;42.502;26.526;2023-02-28T09:47:56;100710.34;;;7.64;100.00
20019;BME280;10170;42.502;26.526;2023-02-28T09:50:05;100726.28;;;7.72;100.00
20019;BME280;10170;42.502;26.526;2023-02-28T09:52:38;100724.16;;;7.83;100.00
20019;BME280;10170;42.502;26.526;2023-02-28T09:55:22;100729.94;;;7.79;100.00
20019;BME280;10170;42.502;26.526;2023-02-28T09:57:53;100719.97;;;7.73;100.00
20019;BME280;10170;42.502;26.526;2023-02-28T10:00:30;100714.06;;;7.87;100.00
20019;BME280;10170;42.502;26.526;2023-02-28T10:06:11;100701.31;;;7.74;100.00
20019;BME280;10170;42.502;26.526;2023-02-28T10:10:55;100700.00;;;7.94;100.00
20019;BME280;10170;42.502;26.526;2023-02-28T10:13:33;100688.41;;;7.79;100.00
20019;BME280;10170;42.502;26.526;2023-02-28T10:16:08;100699.19;;;7.94;100.00
20019;BME280;10170;42.502;26.526;2023-02-28T10:18:52;100699.66;;;7.89;100.00
20019;BME280;10170;42.502;26.526;2023-02-28T10:21:26;100699.19;;;8.02;100.00
20019;BME280;10170;42.502;26.526;2023-02-28T10:24:02;100685.06;;;7.69;100.00
20019;BME280;10170;42.502;26.526;2023-02-28T10:26:31;100683.59;;;7.75;100.00
20019;BME280;10170;42.502;26.526;2023-02-28T10:28:59;100670.88;;;7.86;100.00
20019;BME280;10170;42.502;26.526;2023-02-28T10:31:26;100666.25;;;7.88;100.00
20019;BME280;10170;42.502;26.526;2023-02-28T10:33:53;100653.81;;;7.81;100.00
20019;BME280;10170;42.502;26.526;2023-02-28T10:36:21;100669.06;;;7.87;100.00
20019;BME280;10170;42.502;26.526;2023-02-28T10:38:49;100661.94;;;7.87;100.00
20019;BME280;10170;42.502;26.526;2023-02-28T10:41:28;100653.97;;;7.87;100.00
20019;BME280;10170;42.502;26.526;2023-02-28T10:44:21;100641.75;;;7.94;100.00
20019;BME280;10170;42.502;26.526;2023-02-28T10:46:48;100662.78;;;7.96;100.00
20019;BME280;10170;42.502;26.526;2023-02-28T10:49:20;100659.78;;;8.07;100.00
20019;BME280;10170;42.502;26.526;2023-02-28T10:51:55;100647.03;;;7.86;100.00
20019;BME280;10170;42.502;26.526;2023-02-28T10:57:20;100657.81;;;7.93;100.00
20019;BME280;10170;42.502;26.526;2023-02-28T10:59:51;100653.19;;;7.87;100.00
20019;BME280;10170;42.502;26.526;2023-02-28T11:02:34;100650.03;;;7.91;100.00
20019;BME280;10170;42.502;26.526;2023-02-28T11:05:02;100629.47;;;7.69;100.00
20019;BME280;10170;42.502;26.526;2023-02-28T11:07:29;100646.53;;;7.67;100.00
20019;BME280;10170;42.502;26.526;2023-02-28T11:10:20;100635.09;;;7.66;100.00
20019;BME280;10170;42.502;26.526;2023-02-28T11:12:47;100598.34;;;7.55;100.00
20019;BME280;10170;42.502;26.526;2023-02-28T11:20:39;100631.81;;;7.80;100.00
20019;BME280;10170;42.502;26.526;2023-02-28T11:23:12;100642.09;;;7.83;100.00
20019;BME280;10170;42.502;26.526;2023-02-28T11:25:40;100641.59;;;7.88;100.00
20019;BME280;10170;42.502;26.526;2023-02-28T11:28:35;100641.09;;;7.84;100.00
20019;BME280;10170;42.502;26.526;2023-02-28T11:36:13;100611.09;;;7.68;100.00
20019;BME280;10170;42.502;26.526;2023-02-28T11:38:41;100627.16;;;7.58;100.00
20019;BME280;10170;42.502;26.526;2023-02-28T11:41:19;100633.47;;;7.81;100.00
20019;BME280;10170;42.502;26.526;2023-02-28T11:46:50;100630.31;;;7.70;100.00
20019;BME280;10170;42.502;26.526;2023-02-28T11:55:17;100612.94;;;7.91;100.00
20019;BME280;10170;42.502;26.526;2023-02-28T12:12:34;100616.91;;;7.87;100.00
20019;BME280;10170;42.502;26.526;2023-02-28T12:15:16;100608.31;;;7.85;100.00
20019;BME280;10170;42.502;26.526;2023-02-28T12:29:23;100597.88;;;8.00;100.00
20019;BME280;10170;42.502;26.526;2023-02-28T12:32:03;100608.66;;;8.06;100.00
20019;BME280;10170;42.502;26.526;2023-02-28T12:34:35;100610.31;;;8.15;100.00
20019;BME280;10170;42.502;26.526;2023-02-28T12:37:09;100612.47;;;8.12;100.00
20019;BME280;10170;42.502;26.526;2023-02-28T12:39:41;100609.63;;;8.05;100.00
20019;BME280;10170;42.502;26.526;2023-02-28T12:42:24;100618.91;;;8.01;100.00
20019;BME280;10170;42.502;26.526;2023-02-28T12:45:23;100613.63;;;8.09;100.00
20019;BME280;10170;42.502;26.526;2023-02-28T12:48:05;100615.44;;;8.01;100.00
20019;BME280;10170;42.502;26.526;2023-02-28T12:50:34;100612.13;;;8.07;100.00
20019;BME280;10170;42.502;26.526;2023-02-28T12:53:27;100610.66;;;8.04;100.00
20019;BME280;10170;42.502;26.526;2023-02-28T12:56:15;100606.00;;;7.98;100.00
20019;BME280;10170;42.502;26.526;2023-02-28T12:58:51;100612.28;;;7.81;100.00
20019;BME280;10170;42.502;26.526;2023-02-28T13:10:07;100584.31;;;7.79;100.00
20019;BME280;10170;42.502;26.526;2023-02-28T13:12:35;100588.63;;;7.80;100.00
20019;BME280;10170;42.502;26.526;2023-02-28T13:15:17;100602.19;;;7.93;100.00
20019;BME280;10170;42.502;26.526;2023-02-28T13:17:53;100600.38;;;7.93;100.00
20019;BME280;10170;42.502;26.526;2023-02-28T13:20:37;100601.69;;;7.89;100.00
20019;BME280;10170;42.502;26.526;2023-02-28T13:23:55;100596.41;;;7.81;100.00
20019;BME280;10170;42.502;26.526;2023-02-28T13:28:59;100600.84;;;7.89;100.00
20019;BME280;10170;42.502;26.526;2023-02-28T13:31:27;100569.94;;;7.81;100.00
20019;BME280;10170;42.502;26.526;2023-02-28T13:38:55;100602.34;;;7.75;100.00
20019;BME280;10170;42.502;26.526;2023-02-28T13:44:11;100600.84;;;7.89;100.00
20019;BME280;10170;42.502;26.526;2023-02-28T13:49:26;100584.47;;;7.61;100.00
20019;BME280;10170;42.502;26.526;2023-02-28T13:54:58;100576.72;;;7.60;100.00
20019;BME280;10170;42.502;26.526;2023-02-28T14:06:32;100576.53;;;7.69;100.00
20019;BME280;10170;42.502;26.526;2023-02-28T14:11:44;100589.59;;;7.55;100.00
20019;BME280;10170;42.502;26.526;2023-02-28T14:17:05;100579.31;;;7.35;100.00
20019;BME280;10170;42.502;26.526;2023-02-28T14:19:36;100589.03;;;7.27;100.00
20019;BME280;10170;42.502;26.526;2023-02-28T14:22:17;100587.03;;;7.21;100.00
20019;BME280;10170;42.502;26.526;2023-02-28T14:28:02;100583.38;;;7.06;100.00
20019;BME280;10170;42.502;26.526;2023-02-28T14:33:31;100583.53;;;7.04;100.00
20019;BME280;10170;42.502;26.526;2023-02-28T14:36:26;100595.91;;;7.04;100.00
20019;BME280;10170;42.502;26.526;2023-02-28T14:38:54;100606.84;;;7.09;100.00
20019;BME280;10170;42.502;26.526;2023-02-28T14:41:31;100590.13;;;7.00;100.00
20019;BME280;10170;42.502;26.526;2023-02-28T14:44:00;100606.16;;;6.99;100.00
20019;BME280;10170;42.502;26.526;2023-02-28T14:46:38;100602.31;;;6.93;100.00
20019;BME280;10170;42.502;26.526;2023-02-28T14:49:15;100607.63;;;7.01;100.00
20019;BME280;10170;42.502;26.526;2023-02-28T14:51:42;100607.16;;;7.06;100.00
20019;BME280;10170;42.502;26.526;2023-02-28T14:54:14;100606.66;;;7.02;100.00
20019;BME280;10170;42.502;26.526;2023-02-28T14:56:42;100614.88;;;6.91;100.00
20019;BME280;10170;42.502;26.526;2023-02-28T14:59:28;100613.31;;;6.81;100.00
20019;BME280;10170;42.502;26.526;2023-02-28T15:02:22;100631.34;;;6.85;100.00
20019;BME280;10170;42.502;26.526;2023-02-28T15:04:58;100614.00;;;6.83;100.00
20019;BME280;10170;42.502;26.526;2023-02-28T15:07:26;100628.88;;;6.84;100.00
20019;BME280;10170;42.502;26.526;2023-02-28T15:10:10;100622.28;;;6.88;100.00
20019;BME280;10170;42.502;26.526;2023-02-28T15:12:39;100634.16;;;6.84;100.00
20019;BME280;10170;42.502;26.526;2023-02-28T15:15:14;100632.19;;;6.86;100.00
20019;BME280;10170;42.502;26.526;2023-02-28T15:17:45;100640.56;;;6.81;100.00